sensor_id;sensor_type;location;lat;lon;timestamp;pressure;altitude;pressure_sealevel;temperature;humidity
16793;BME280;8513;42.662;23.350;2022-12-19T00:00:47;96624.09;;;2.09;56.82
16793;BME280;8513;42.662;23.350;2022-12-19T00:03:13;96623.84;;;1.93;57.43
16793;BME280;8513;42.662;23.350;2022-12-19T00:05:39;96635.78;;;1.97;57.24
16793;BME280;8513;42.662;23.350;2022-12-19T00:08:06;96634.81;;;1.99;57.09
16793;BME280;8513;42.662;23.350;2022-12-19T00:10:37;96631.44;;;1.97;57.24
16793;BME280;8513;42.662;23.350;2022-12-19T00:13:02;96630.03;;;2.11;56.77
16793;BME280;8513;42.662;23.350;2022-12-19T00:15:28;96634.53;;;2.07;57.13
16793;BME280;8513;42.662;23.350;2022-12-19T00:17:53;96633.69;;;2.07;57.16
16793;BME280;8513;42.662;23.350;2022-12-19T00:20:19;96637.13;;;2.07;57.44
16793;BME280;8513;42.662;23.350;2022-12-19T00:22:44;96635.13;;;1.92;57.46
16793;BME280;8513;42.662;23.350;2022-12-19T00:25:35;96637.22;;;1.82;58.09
16793;BME280;8513;42.662;23.350;2022-12-19T00:28:00;96640.84;;;2.00;57.54
16793;BME280;8513;42.662;23.350;2022-12-19T00:30:26;96640.28;;;1.70;58.63
16793;BME280;8513;42.662;23.350;2022-12-19T00:32:51;96634.38;;;1.43;59.56
16793;BME280;8513;42.662;23.350;2022-12-19T00:35:17;96636.19;;;1.64;59.26
16793;BME280;8513;42.662;23.350;2022-12-19T00:37:42;96641.31;;;1.66;58.73
16793;BME280;8513;42.662;23.350;2022-12-19T00:40:08;96642.84;;;1.71;59.11
16793;BME280;8513;42.662;23.350;2022-12-19T00:42:33;96655.94;;;1.90;58.39
16793;BME280;8513;42.662;23.350;2022-12-19T00:44:59;96649.97;;;1.88;58.19
16793;BME280;8513;42.662;23.350;2022-12-19T00:47:25;96648.59;;;2.02;57.99
16793;BME280;8513;42.662;23.350;2022-12-19T00:49:50;96643.50;;;1.76;58.83
16793;BME280;8513;42.662;23.350;2022-12-19T00:52:16;96646.66;;;1.85;58.59
16793;BME280;8513;42.662;23.350;2022-12-19T00:54:41;96644.31;;;2.01;58.66
16793;BME280;8513;42.662;23.350;2022-12-19T00:57:06;96644.81;;;1.87;58.77
16793;BME280;8513;42.662;23.350;2022-12-19T00:59:32;96644.38;;;1.75;59.19
16793;BME280;8513;42.662;23.350;2022-12-19T01:01:57;96650.25;;;1.81;58.85
16793;BME280;8513;42.662;23.350;2022-12-19T01:04:23;96639.88;;;1.81;58.74
16793;BME280;8513;42.662;23.350;2022-12-19T01:06:48;96656.53;;;1.97;58.56
16793;BME280;8513;42.662;23.350;2022-12-19T01:09:14;96658.53;;;2.12;58.89
16793;BME280;8513;42.662;23.350;2022-12-19T01:11:39;96649.53;;;1.99;58.56
16793;BME280;8513;42.662;23.350;2022-12-19T01:14:23;96656.09;;;1.86;59.20
16793;BME280;8513;42.662;23.350;2022-12-19T01:16:50;96666.31;;;1.90;59.10
16793;BME280;8513;42.662;23.350;2022-12-19T01:19:15;96648.22;;;1.89;58.89
16793;BME280;8513;42.662;23.350;2022-12-19T01:21:41;96665.69;;;2.06;58.80
16793;BME280;8513;42.662;23.350;2022-12-19T01:24:06;96663.56;;;2.17;58.64
16793;BME280;8513;42.662;23.350;2022-12-19T01:26:32;96664.69;;;1.88;58.71
16793;BME280;8513;42.662;23.350;2022-12-19T01:28:58;96664.88;;;2.05;58.78
16793;BME280;8513;42.662;23.350;2022-12-19T01:31:23;96664.75;;;2.08;58.73
16793;BME280;8513;42.662;23.350;2022-12-19T01:33:48;96664.28;;;2.20;58.46
16793;BME280;8513;42.662;23.350;2022-12-19T01:36:14;96668.13;;;2.10;58.76
16793;BME280;8513;42.662;23.350;2022-12-19T01:38:39;96664.16;;;2.24;58.38
16793;BME280;8513;42.662;23.350;2022-12-19T01:41:05;96657.94;;;2.28;58.25
16793;BME280;8513;42.662;23.350;2022-12-19T01:43:51;96658.38;;;2.17;58.54
16793;BME280;8513;42.662;23.350;2022-12-19T01:46:23;96666.66;;;2.03;59.20
16793;BME280;8513;42.662;23.350;2022-12-19T01:48:50;96661.47;;;2.03;59.18
16793;BME280;8513;42.662;23.350;2022-12-19T01:51:18;96660.84;;;1.98;59.65
16793;BME280;8513;42.662;23.350;2022-12-19T01:53:48;96658.13;;;2.01;59.07
16793;BME280;8513;42.662;23.350;2022-12-19T01:56:18;96658.03;;;2.03;59.17
16793;BME280;8513;42.662;23.350;2022-12-19T01:58:46;96654.59;;;1.80;59.65
16793;BME280;8513;42.662;23.350;2022-12-19T02:01:15;96657.88;;;1.85;60.04
16793;BME280;8513;42.662;23.350;2022-12-19T02:03:42;96649.78;;;1.93;59.56
16793;BME280;8513;42.662;23.350;2022-12-19T02:06:10;96651.47;;;1.94;59.63
16793;BME280;8513;42.662;23.350;2022-12-19T02:08:38;96650.94;;;2.08;59.15
16793;BME280;8513;42.662;23.350;2022-12-19T02:11:05;96650.38;;;1.99;59.57
16793;BME280;8513;42.662;23.350;2022-12-19T02:13:31;96648.47;;;2.05;59.15
16793;BME280;8513;42.662;23.350;2022-12-19T02:26:58;96655.69;;;2.18;59.11
16793;BME280;8513;42.662;23.350;2022-12-19T02:29:41;96651.84;;;2.07;59.39
16793;BME280;8513;42.662;23.350;2022-12-19T02:32:30;96661.97;;;1.91;59.93
16793;BME280;8513;42.662;23.350;2022-12-19T02:37:47;96670.56;;;2.15;58.89
16793;BME280;8513;42.662;23.350;2022-12-19T02:40:18;96666.16;;;2.17;59.10
16793;BME280;8513;42.662;23.350;2022-12-19T02:42:49;96664.41;;;2.17;58.98
16793;BME280;8513;42.662;23.350;2022-12-19T02:45:18;96664.69;;;1.88;59.66
16793;BME280;8513;42.662;23.350;2022-12-19T02:47:45;96663.50;;;1.73;60.43
16793;BME280;8513;42.662;23.350;2022-12-19T02:50:11;96662.69;;;1.94;59.63
16793;BME280;8513;42.662;23.350;2022-12-19T02:55:07;96661.69;;;1.75;60.03
16793;BME280;8513;42.662;23.350;2022-12-19T03:00:10;96653.25;;;1.70;59.96
16793;BME280;8513;42.662;23.350;2022-12-19T03:10:59;96643.66;;;1.95;59.30
16793;BME280;8513;42.662;23.350;2022-12-19T03:15:53;96644.84;;;2.09;59.07
16793;BME280;8513;42.662;23.350;2022-12-19T03:18:19;96640.50;;;1.87;59.21
16793;BME280;8513;42.662;23.350;2022-12-19T03:21:06;96643.72;;;1.92;59.50
16793;BME280;8513;42.662;23.350;2022-12-19T03:23:33;96642.13;;;1.90;59.75
16793;BME280;8513;42.662;23.350;2022-12-19T03:26:05;96640.13;;;1.74;60.36
16793;BME280;8513;42.662;23.350;2022-12-19T03:28:53;96648.06;;;1.70;60.33
16793;BME280;8513;42.662;23.350;2022-12-19T03:31:24;96647.22;;;1.69;60.34
16793;BME280;8513;42.662;23.350;2022-12-19T03:33:57;96655.94;;;1.90;59.71
16793;BME280;8513;42.662;23.350;2022-12-19T03:36:27;96657.34;;;1.99;59.38
16793;BME280;8513;42.662;23.350;2022-12-19T03:38:54;96666.03;;;1.98;58.92
16793;BME280;8513;42.662;23.350;2022-12-19T03:41:23;96667.03;;;1.94;59.51
16793;BME280;8513;42.662;23.350;2022-12-19T03:44:08;96663.53;;;1.95;59.21
16793;BME280;8513;42.662;23.350;2022-12-19T03:46:39;96663.78;;;1.89;59.58
16793;BME280;8513;42.662;23.350;2022-12-19T03:49:07;96659.00;;;2.00;58.72
16793;BME280;8513;42.662;23.350;2022-12-19T03:54:23;96666.19;;;2.15;58.43
16793;BME280;8513;42.662;23.350;2022-12-19T04:02:27;96681.84;;;2.14;58.83
16793;BME280;8513;42.662;23.350;2022-12-19T04:04:58;96682.63;;;2.16;58.52
16793;BME280;8513;42.662;23.350;2022-12-19T04:07:26;96695.72;;;2.13;58.38
16793;BME280;8513;42.662;23.350;2022-12-19T04:09:53;96693.28;;;2.08;58.12
16793;BME280;8513;42.662;23.350;2022-12-19T04:12:24;96688.59;;;1.96;58.68
16793;BME280;8513;42.662;23.350;2022-12-19T04:14:52;96698.56;;;2.07;58.51
16793;BME280;8513;42.662;23.350;2022-12-19T04:17:41;96711.44;;;2.08;57.72
16793;BME280;8513;42.662;23.350;2022-12-19T04:20:13;96709.81;;;2.06;58.09
16793;BME280;8513;42.662;23.350;2022-12-19T04:25:13;96709.25;;;1.97;58.06
16793;BME280;8513;42.662;23.350;2022-12-19T04:27:46;96714.00;;;1.86;58.33
16793;BME280;8513;42.662;23.350;2022-12-19T04:30:14;96715.13;;;1.79;58.87
16793;BME280;8513;42.662;23.350;2022-12-19T04:32:41;96710.22;;;1.95;58.37
16793;BME280;8513;42.662;23.350;2022-12-19T04:35:07;96697.84;;;1.80;58.44
16793;BME280;8513;42.662;23.350;2022-12-19T04:37:33;96690.78;;;1.83;58.64
16793;BME280;8513;42.662;23.350;2022-12-19T04:39:58;96691.63;;;1.84;58.18
16793;BME280;8513;42.662;23.350;2022-12-19T04:42:24;96697.56;;;1.87;58.39
16793;BME280;8513;42.662;23.350;2022-12-19T04:44:49;96705.22;;;1.90;57.74
16793;BME280;8513;42.662;23.350;2022-12-19T04:47:14;96697.59;;;1.86;57.89
16793;BME280;8513;42.662;23.350;2022-12-19T04:49:40;96704.19;;;1.94;58.09
16793;BME280;8513;42.662;23.350;2022-12-19T04:52:05;96706.88;;;1.93;57.74
16793;BME280;8513;42.662;23.350;2022-12-19T04:54:31;96716.38;;;1.92;57.81
16793;BME280;8513;42.662;23.350;2022-12-19T04:56:57;96715.41;;;1.95;57.80
16793;BME280;8513;42.662;23.350;2022-12-19T04:59:23;96714.41;;;1.75;58.37
16793;BME280;8513;42.662;23.350;2022-12-19T05:01:48;96724.28;;;1.89;58.15
16793;BME280;8513;42.662;23.350;2022-12-19T05:04:14;96710.28;;;1.93;57.62
16793;BME280;8513;42.662;23.350;2022-12-19T05:06:39;96713.84;;;1.91;57.85
16793;BME280;8513;42.662;23.350;2022-12-19T05:09:05;96719.03;;;1.91;58.24
16793;BME280;8513;42.662;23.350;2022-12-19T05:11:30;96722.59;;;1.88;58.00
16793;BME280;8513;42.662;23.350;2022-12-19T05:13:57;96725.50;;;1.79;58.63
16793;BME280;8513;42.662;23.350;2022-12-19T05:16:23;96710.13;;;1.74;58.92
16793;BME280;8513;42.662;23.350;2022-12-19T05:18:48;96717.84;;;1.76;58.56
16793;BME280;8513;42.662;23.350;2022-12-19T05:21:14;96712.63;;;1.77;58.35
16793;BME280;8513;42.662;23.350;2022-12-19T05:23:40;96709.19;;;1.77;58.36
16793;BME280;8513;42.662;23.350;2022-12-19T05:26:06;96720.81;;;1.65;58.91
16793;BME280;8513;42.662;23.350;2022-12-19T05:28:32;96718.03;;;1.71;58.71
16793;BME280;8513;42.662;23.350;2022-12-19T05:31:13;96718.59;;;1.80;58.22
16793;BME280;8513;42.662;23.350;2022-12-19T05:33:39;96728.75;;;1.86;58.05
16793;BME280;8513;42.662;23.350;2022-12-19T05:36:06;96722.03;;;1.80;58.16
16793;BME280;8513;42.662;23.350;2022-12-19T05:38:32;96725.31;;;1.85;58.14
16793;BME280;8513;42.662;23.350;2022-12-19T05:40:58;96724.56;;;1.82;58.25
16793;BME280;8513;42.662;23.350;2022-12-19T05:43:24;96737.19;;;1.91;57.81
16793;BME280;8513;42.662;23.350;2022-12-19T05:45:49;96727.06;;;1.85;57.80
16793;BME280;8513;42.662;23.350;2022-12-19T05:48:15;96721.63;;;1.67;58.46
16793;BME280;8513;42.662;23.350;2022-12-19T05:50:40;96725.63;;;1.76;58.21
16793;BME280;8513;42.662;23.350;2022-12-19T05:53:06;96721.59;;;1.69;58.84
16793;BME280;8513;42.662;23.350;2022-12-19T05:55:31;96720.56;;;1.73;58.41
16793;BME280;8513;42.662;23.350;2022-12-19T05:57:57;96728.91;;;1.81;58.04
16793;BME280;8513;42.662;23.350;2022-12-19T06:00:22;96732.41;;;1.80;58.28
16793;BME280;8513;42.662;23.350;2022-12-19T06:02:48;96737.72;;;1.77;58.48
16793;BME280;8513;42.662;23.350;2022-12-19T06:05:13;96736.78;;;1.78;58.63
16793;BME280;8513;42.662;23.350;2022-12-19T06:07:38;96731.09;;;1.68;58.72
16793;BME280;8513;42.662;23.350;2022-12-19T06:10:05;96737.88;;;1.72;58.62
16793;BME280;8513;42.662;23.350;2022-12-19T06:12:31;96736.47;;;1.87;58.71
16793;BME280;8513;42.662;23.350;2022-12-19T06:14:56;96742.28;;;1.94;58.42
16793;BME280;8513;42.662;23.350;2022-12-19T06:17:22;96740.41;;;1.97;57.76
16793;BME280;8513;42.662;23.350;2022-12-19T06:19:47;96737.47;;;2.07;58.28
16793;BME280;8513;42.662;23.350;2022-12-19T06:22:13;96746.34;;;2.01;58.00
16793;BME280;8513;42.662;23.350;2022-12-19T06:24:38;96745.78;;;1.93;57.82
16793;BME280;8513;42.662;23.350;2022-12-19T06:27:04;96749.09;;;1.96;57.66
16793;BME280;8513;42.662;23.350;2022-12-19T06:29:29;96747.91;;;2.05;57.69
16793;BME280;8513;42.662;23.350;2022-12-19T06:31:54;96752.13;;;2.08;57.61
16793;BME280;8513;42.662;23.350;2022-12-19T06:34:20;96757.00;;;2.17;57.34
16793;BME280;8513;42.662;23.350;2022-12-19T06:36:46;96756.75;;;2.23;56.83
16793;BME280;8513;42.662;23.350;2022-12-19T06:39:37;96756.91;;;2.18;56.90
16793;BME280;8513;42.662;23.350;2022-12-19T06:42:03;96755.75;;;2.04;57.12
16793;BME280;8513;42.662;23.350;2022-12-19T06:44:48;96762.34;;;2.12;57.12
16793;BME280;8513;42.662;23.350;2022-12-19T06:47:14;96759.19;;;2.04;57.58
16793;BME280;8513;42.662;23.350;2022-12-19T06:49:39;96760.03;;;2.05;57.24
16793;BME280;8513;42.662;23.350;2022-12-19T06:52:05;96767.25;;;1.96;57.39
16793;BME280;8513;42.662;23.350;2022-12-19T06:54:30;96771.81;;;2.13;56.87
16793;BME280;8513;42.662;23.350;2022-12-19T06:56:56;96780.94;;;2.00;57.00
16793;BME280;8513;42.662;23.350;2022-12-19T06:59:21;96783.25;;;2.08;56.93
16793;BME280;8513;42.662;23.350;2022-12-19T07:04:20;96787.22;;;2.18;57.05
16793;BME280;8513;42.662;23.350;2022-12-19T07:06:48;96783.66;;;2.20;57.03
16793;BME280;8513;42.662;23.350;2022-12-19T07:09:14;96787.06;;;2.23;57.18
16793;BME280;8513;42.662;23.350;2022-12-19T07:11:39;96789.81;;;2.18;57.43
16793;BME280;8513;42.662;23.350;2022-12-19T07:14:04;96794.44;;;2.10;57.48
16793;BME280;8513;42.662;23.350;2022-12-19T07:16:30;96802.72;;;1.96;57.92
16793;BME280;8513;42.662;23.350;2022-12-19T07:18:56;96797.06;;;2.08;58.31
16793;BME280;8513;42.662;23.350;2022-12-19T07:21:22;96793.09;;;2.23;57.31
16793;BME280;8513;42.662;23.350;2022-12-19T07:23:47;96798.59;;;2.37;57.30
16793;BME280;8513;42.662;23.350;2022-12-19T07:26:13;96794.91;;;2.43;56.98
16793;BME280;8513;42.662;23.350;2022-12-19T07:28:38;96788.50;;;2.30;56.92
16793;BME280;8513;42.662;23.350;2022-12-19T07:31:04;96793.88;;;2.49;56.65
16793;BME280;8513;42.662;23.350;2022-12-19T07:33:29;96794.41;;;2.57;56.17
16793;BME280;8513;42.662;23.350;2022-12-19T07:35:55;96800.50;;;2.56;56.63
16793;BME280;8513;42.662;23.350;2022-12-19T07:38:20;96797.22;;;2.51;56.80
16793;BME280;8513;42.662;23.350;2022-12-19T07:40:46;96812.25;;;2.64;56.28
16793;BME280;8513;42.662;23.350;2022-12-19T07:43:11;96810.84;;;2.57;56.61
16793;BME280;8513;42.662;23.350;2022-12-19T07:45:37;96814.84;;;2.64;57.05
16793;BME280;8513;42.662;23.350;2022-12-19T07:48:04;96816.88;;;2.58;57.19
16793;BME280;8513;42.662;23.350;2022-12-19T07:50:30;96825.50;;;2.58;56.91
16793;BME280;8513;42.662;23.350;2022-12-19T07:52:56;96825.75;;;2.52;57.39
16793;BME280;8513;42.662;23.350;2022-12-19T07:55:22;96836.69;;;2.60;57.27
16793;BME280;8513;42.662;23.350;2022-12-19T07:57:47;96836.72;;;2.59;56.99
16793;BME280;8513;42.662;23.350;2022-12-19T08:00:13;96849.53;;;2.63;57.03
16793;BME280;8513;42.662;23.350;2022-12-19T08:02:39;96848.47;;;2.69;56.80
16793;BME280;8513;42.662;23.350;2022-12-19T08:05:05;96848.31;;;2.50;57.21
16793;BME280;8513;42.662;23.350;2022-12-19T08:07:31;96853.47;;;2.52;57.46
16793;BME280;8513;42.662;23.350;2022-12-19T08:09:56;96852.72;;;2.48;57.96
16793;BME280;8513;42.662;23.350;2022-12-19T08:12:22;96849.28;;;2.48;57.43
16793;BME280;8513;42.662;23.350;2022-12-19T08:14:47;96851.41;;;2.60;57.66
16793;BME280;8513;42.662;23.350;2022-12-19T08:17:13;96844.84;;;2.28;57.87
16793;BME280;8513;42.662;23.350;2022-12-19T08:19:39;96853.56;;;2.25;58.46
16793;BME280;8513;42.662;23.350;2022-12-19T08:22:04;96849.34;;;2.23;58.56
16793;BME280;8513;42.662;23.350;2022-12-19T08:24:30;96852.66;;;2.26;58.42
16793;BME280;8513;42.662;23.350;2022-12-19T08:26:56;96860.88;;;2.61;57.98
16793;BME280;8513;42.662;23.350;2022-12-19T08:29:22;96863.44;;;2.62;57.79
16793;BME280;8513;42.662;23.350;2022-12-19T08:31:48;96858.13;;;2.65;57.74
16793;BME280;8513;42.662;23.350;2022-12-19T08:34:13;96866.22;;;2.58;57.50
16793;BME280;8513;42.662;23.350;2022-12-19T08:36:38;96857.31;;;2.41;57.78
16793;BME280;8513;42.662;23.350;2022-12-19T08:39:04;96863.25;;;2.67;57.24
16793;BME280;8513;42.662;23.350;2022-12-19T08:41:30;96858.56;;;2.53;57.87
16793;BME280;8513;42.662;23.350;2022-12-19T08:43:55;96860.84;;;2.62;57.21
16793;BME280;8513;42.662;23.350;2022-12-19T08:46:21;96862.00;;;2.77;57.10
16793;BME280;8513;42.662;23.350;2022-12-19T08:48:47;96857.31;;;2.87;56.96
16793;BME280;8513;42.662;23.350;2022-12-19T08:51:14;96848.84;;;2.82;57.10
16793;BME280;8513;42.662;23.350;2022-12-19T08:53:42;96850.19;;;2.92;57.19
16793;BME280;8513;42.662;23.350;2022-12-19T08:56:16;96839.78;;;2.92;56.79
16793;BME280;8513;42.662;23.350;2022-12-19T08:58:43;96840.38;;;2.77;57.54
16793;BME280;8513;42.662;23.350;2022-12-19T09:01:14;96836.31;;;2.70;57.97
16793;BME280;8513;42.662;23.350;2022-12-19T09:03:40;96840.88;;;2.86;57.82
16793;BME280;8513;42.662;23.350;2022-12-19T09:06:08;96834.72;;;2.89;57.93
16793;BME280;8513;42.662;23.350;2022-12-19T09:08:35;96834.47;;;2.95;57.69
16793;BME280;8513;42.662;23.350;2022-12-19T09:11:03;96829.09;;;3.00;57.76
16793;BME280;8513;42.662;23.350;2022-12-19T09:13:31;96823.81;;;3.01;57.41
16793;BME280;8513;42.662;23.350;2022-12-19T09:16:03;96825.97;;;3.12;57.53
16793;BME280;8513;42.662;23.350;2022-12-19T09:18:29;96822.28;;;3.18;57.81
16793;BME280;8513;42.662;23.350;2022-12-19T09:20:56;96822.94;;;3.23;57.31
16793;BME280;8513;42.662;23.350;2022-12-19T09:23:23;96810.06;;;3.20;57.48
16793;BME280;8513;42.662;23.350;2022-12-19T09:25:52;96807.91;;;3.09;57.89
16793;BME280;8513;42.662;23.350;2022-12-19T09:28:18;96800.19;;;3.07;58.06
16793;BME280;8513;42.662;23.350;2022-12-19T09:30:43;96787.78;;;3.14;57.53
16793;BME280;8513;42.662;23.350;2022-12-19T09:33:10;96792.00;;;3.17;57.93
16793;BME280;8513;42.662;23.350;2022-12-19T09:35:35;96788.03;;;2.86;58.70
16793;BME280;8513;42.662;23.350;2022-12-19T09:38:01;96781.22;;;3.05;58.55
16793;BME280;8513;42.662;23.350;2022-12-19T09:40:42;96780.63;;;3.19;58.36
16793;BME280;8513;42.662;23.350;2022-12-19T09:46:15;96768.50;;;3.40;58.08
16793;BME280;8513;42.662;23.350;2022-12-19T09:48:42;96765.59;;;3.48;57.86
16793;BME280;8513;42.662;23.350;2022-12-19T09:54:01;96763.75;;;3.50;58.40
16793;BME280;8513;42.662;23.350;2022-12-19T09:56:33;96759.84;;;3.60;58.28
16793;BME280;8513;42.662;23.350;2022-12-19T09:59:07;96765.88;;;3.61;58.79
16793;BME280;8513;42.662;23.350;2022-12-19T10:01:48;96761.91;;;3.72;58.45
16793;BME280;8513;42.662;23.350;2022-12-19T10:04:17;96754.03;;;3.74;58.38
16793;BME280;8513;42.662;23.350;2022-12-19T10:07:10;96752.16;;;3.78;58.60
16793;BME280;8513;42.662;23.350;2022-12-19T10:09:35;96750.84;;;3.88;58.46
16793;BME280;8513;42.662;23.350;2022-12-19T10:15:28;96742.16;;;3.87;58.61
16793;BME280;8513;42.662;23.350;2022-12-19T10:18:01;96735.47;;;3.82;59.04
16793;BME280;8513;42.662;23.350;2022-12-19T10:20:36;96735.00;;;4.11;58.05
16793;BME280;8513;42.662;23.350;2022-12-19T10:26:15;96727.69;;;4.19;57.98
16793;BME280;8513;42.662;23.350;2022-12-19T10:34:18;96714.31;;;4.08;58.71
16793;BME280;8513;42.662;23.350;2022-12-19T10:36:48;96715.38;;;4.23;58.31
16793;BME280;8513;42.662;23.350;2022-12-19T10:41:56;96703.75;;;4.30;57.92
16793;BME280;8513;42.662;23.350;2022-12-19T10:44:27;96702.94;;;4.11;58.44
16793;BME280;8513;42.662;23.350;2022-12-19T10:46:54;96697.69;;;4.30;58.03
16793;BME280;8513;42.662;23.350;2022-12-19T10:49:28;96696.00;;;4.48;57.71
16793;BME280;8513;42.662;23.350;2022-12-19T10:57:23;96693.53;;;4.45;58.22
16793;BME280;8513;42.662;23.350;2022-12-19T11:04:54;96695.53;;;4.39;58.31
16793;BME280;8513;42.662;23.350;2022-12-19T11:07:20;96694.34;;;4.09;59.28
16793;BME280;8513;42.662;23.350;2022-12-19T11:09:46;96691.53;;;3.94;59.77
16793;BME280;8513;42.662;23.350;2022-12-19T11:12:14;96689.34;;;3.66;60.64
16793;BME280;8513;42.662;23.350;2022-12-19T11:15:04;96694.47;;;4.06;59.75
16793;BME280;8513;42.662;23.350;2022-12-19T11:19:57;96687.69;;;4.39;58.65
16793;BME280;8513;42.662;23.350;2022-12-19T11:22:28;96686.44;;;4.29;58.75
16793;BME280;8513;42.662;23.350;2022-12-19T11:24:55;96692.66;;;4.08;59.70
16793;BME280;8513;42.662;23.350;2022-12-19T11:27:40;96689.81;;;4.31;59.36
16793;BME280;8513;42.662;23.350;2022-12-19T11:30:26;96691.97;;;4.40;59.12
16793;BME280;8513;42.662;23.350;2022-12-19T11:35:46;96682.97;;;4.48;58.59
16793;BME280;8513;42.662;23.350;2022-12-19T11:38:16;96680.38;;;4.48;58.94
16793;BME280;8513;42.662;23.350;2022-12-19T11:40:50;96678.06;;;4.41;58.68
16793;BME280;8513;42.662;23.350;2022-12-19T11:43:40;96677.31;;;4.57;58.44
16793;BME280;8513;42.662;23.350;2022-12-19T11:46:22;96682.91;;;4.30;59.69
16793;BME280;8513;42.662;23.350;2022-12-19T11:48:52;96683.28;;;4.41;59.36
16793;BME280;8513;42.662;23.350;2022-12-19T11:51:42;96676.84;;;3.93;60.96
16793;BME280;8513;42.662;23.350;2022-12-19T11:54:40;96680.13;;;3.97;61.35
16793;BME280;8513;42.662;23.350;2022-12-19T11:57:10;96683.50;;;4.18;60.09
16793;BME280;8513;42.662;23.350;2022-12-19T11:59:37;96680.47;;;4.27;59.49
16793;BME280;8513;42.662;23.350;2022-12-19T12:02:16;96681.19;;;4.31;59.62
16793;BME280;8513;42.662;23.350;2022-12-19T12:07:28;96679.88;;;4.39;59.49
16793;BME280;8513;42.662;23.350;2022-12-19T12:10:23;96679.06;;;4.56;59.48
16793;BME280;8513;42.662;23.350;2022-12-19T12:13:05;96678.03;;;4.60;59.26
16793;BME280;8513;42.662;23.350;2022-12-19T12:15:58;96682.97;;;4.65;59.02
16793;BME280;8513;42.662;23.350;2022-12-19T12:22:27;96681.47;;;4.61;59.08
16793;BME280;8513;42.662;23.350;2022-12-19T12:25:10;96673.19;;;4.53;59.57
16793;BME280;8513;42.662;23.350;2022-12-19T12:30:22;96682.19;;;4.46;59.63
16793;BME280;8513;42.662;23.350;2022-12-19T12:36:07;96691.63;;;4.48;59.82
16793;BME280;8513;42.662;23.350;2022-12-19T12:38:51;96688.44;;;4.60;59.42
16793;BME280;8513;42.662;23.350;2022-12-19T12:41:23;96692.56;;;4.64;59.02
16793;BME280;8513;42.662;23.350;2022-12-19T12:44:11;96700.31;;;4.66;58.15
16793;BME280;8513;42.662;23.350;2022-12-19T12:46:48;96694.13;;;4.69;58.21
16793;BME280;8513;42.662;23.350;2022-12-19T12:51:39;96689.38;;;4.40;59.35
16793;BME280;8513;42.662;23.350;2022-12-19T12:54:10;96693.94;;;4.18;59.87
16793;BME280;8513;42.662;23.350;2022-12-19T12:56:38;96686.72;;;4.42;59.11
16793;BME280;8513;42.662;23.350;2022-12-19T12:59:22;96673.59;;;4.43;57.61
16793;BME280;8513;42.662;23.350;2022-12-19T13:01:56;96677.56;;;4.52;57.31
16793;BME280;8513;42.662;23.350;2022-12-19T13:04:29;96685.56;;;4.48;55.91
16793;BME280;8513;42.662;23.350;2022-12-19T13:07:14;96673.81;;;4.58;55.51
16793;BME280;8513;42.662;23.350;2022-12-19T13:09:43;96677.72;;;4.67;55.24
16793;BME280;8513;42.662;23.350;2022-12-19T13:12:23;96684.91;;;4.61;55.11
16793;BME280;8513;42.662;23.350;2022-12-19T13:22:44;96681.09;;;4.69;54.54
16793;BME280;8513;42.662;23.350;2022-12-19T13:25:48;96694.97;;;4.69;54.28
16793;BME280;8513;42.662;23.350;2022-12-19T13:36:52;96713.56;;;4.61;53.90
16793;BME280;8513;42.662;23.350;2022-12-19T13:39:38;96707.03;;;4.53;54.05
16793;BME280;8513;42.662;23.350;2022-12-19T13:42:15;96715.78;;;4.52;54.61
16793;BME280;8513;42.662;23.350;2022-12-19T13:45:15;96723.19;;;4.42;54.71
16793;BME280;8513;42.662;23.350;2022-12-19T13:47:45;96720.38;;;4.47;54.43
16793;BME280;8513;42.662;23.350;2022-12-19T13:50:21;96710.94;;;4.44;54.98
16793;BME280;8513;42.662;23.350;2022-12-19T13:52:49;96709.81;;;4.31;55.45
16793;BME280;8513;42.662;23.350;2022-12-19T13:55:14;96714.03;;;4.33;55.06
16793;BME280;8513;42.662;23.350;2022-12-19T13:57:40;96716.25;;;4.41;54.77
16793;BME280;8513;42.662;23.350;2022-12-19T14:00:08;96715.88;;;4.31;54.35
16793;BME280;8513;42.662;23.350;2022-12-19T14:02:39;96721.41;;;4.42;54.63
16793;BME280;8513;42.662;23.350;2022-12-19T14:07:48;96715.03;;;4.31;53.60
16793;BME280;8513;42.662;23.350;2022-12-19T14:10:21;96718.00;;;4.23;53.74
16793;BME280;8513;42.662;23.350;2022-12-19T14:12:48;96711.00;;;4.24;54.21
16793;BME280;8513;42.662;23.350;2022-12-19T14:15:40;96726.50;;;4.27;53.37
16793;BME280;8513;42.662;23.350;2022-12-19T14:18:29;96727.19;;;4.30;53.61
16793;BME280;8513;42.662;23.350;2022-12-19T14:21:18;96725.34;;;4.32;53.05
16793;BME280;8513;42.662;23.350;2022-12-19T14:23:43;96728.88;;;4.31;52.72
16793;BME280;8513;42.662;23.350;2022-12-19T14:26:27;96739.03;;;4.00;53.77
16793;BME280;8513;42.662;23.350;2022-12-19T14:29:00;96742.63;;;4.16;53.63
16793;BME280;8513;42.662;23.350;2022-12-19T14:31:28;96724.31;;;4.17;53.85
16793;BME280;8513;42.662;23.350;2022-12-19T14:33:55;96719.81;;;4.21;53.74
16793;BME280;8513;42.662;23.350;2022-12-19T14:36:29;96736.56;;;4.15;53.64
16793;BME280;8513;42.662;23.350;2022-12-19T14:38:56;96730.09;;;4.05;52.87
16793;BME280;8513;42.662;23.350;2022-12-19T14:44:13;96725.31;;;4.15;52.70
16793;BME280;8513;42.662;23.350;2022-12-19T14:46:39;96722.56;;;4.18;52.44
16793;BME280;8513;42.662;23.350;2022-12-19T14:49:29;96721.38;;;4.25;52.80
16793;BME280;8513;42.662;23.350;2022-12-19T14:51:55;96709.91;;;4.10;52.73
16793;BME280;8513;42.662;23.350;2022-12-19T14:54:22;96704.06;;;4.05;52.93
16793;BME280;8513;42.662;23.350;2022-12-19T14:56:53;96714.88;;;4.34;52.03
16793;BME280;8513;42.662;23.350;2022-12-19T15:02:21;96706.81;;;4.02;52.60
16793;BME280;8513;42.662;23.350;2022-12-19T15:04:48;96697.91;;;3.87;51.89
16793;BME280;8513;42.662;23.350;2022-12-19T15:07:27;96702.00;;;3.74;51.76
16793;BME280;8513;42.662;23.350;2022-12-19T15:12:28;96695.09;;;3.73;52.06
16793;BME280;8513;42.662;23.350;2022-12-19T15:17:45;96693.84;;;4.01;52.62
16793;BME280;8513;42.662;23.350;2022-12-19T15:20:12;96692.59;;;3.90;53.97
16793;BME280;8513;42.662;23.350;2022-12-19T15:22:37;96702.59;;;4.00;54.64
16793;BME280;8513;42.662;23.350;2022-12-19T15:25:03;96693.28;;;3.94;55.10
16793;BME280;8513;42.662;23.350;2022-12-19T15:27:30;96711.44;;;3.95;55.33